createdAt,value
2019-03-05T00:02:11.830Z,3.30
2019-03-05T00:04:41.712Z,3.03
2019-03-05T00:07:11.346Z,2.80
2019-03-05T00:09:40.876Z,2.80
2019-03-05T00:12:10.415Z,2.80
2019-03-05T00:14:40.010Z,2.87
2019-03-05T00:17:09.855Z,3.13
2019-03-05T00:19:39.399Z,2.43
2019-03-05T00:22:08.969Z,3.20
2019-03-05T00:25:06.235Z,2.77
2019-03-05T00:27:44.564Z,2.40
2019-03-05T00:30:29.135Z,2.60
2019-03-05T00:33:13.135Z,2.30
2019-03-05T00:36:13.132Z,2.50
2019-03-05T00:38:56.152Z,2.60
2019-03-05T00:41:59.163Z,2.43
2019-03-05T00:44:53.162Z,2.00
2019-03-05T00:48:07.633Z,2.17
2019-03-05T00:51:24.152Z,2.03
2019-03-05T00:53:55.167Z,2.13
2019-03-05T00:57:11.166Z,2.07
2019-03-05T00:59:51.166Z,1.93
2019-03-05T01:02:46.642Z,1.93
2019-03-05T01:05:48.175Z,2.10
2019-03-05T01:08:24.356Z,1.97
2019-03-05T01:11:01.541Z,1.93
2019-03-05T01:13:38.187Z,1.87
2019-03-05T01:16:20.197Z,1.87
2019-03-05T01:18:58.195Z,1.70
2019-03-05T01:21:40.195Z,1.77
2019-03-05T01:24:16.478Z,1.57
2019-03-05T01:26:53.665Z,1.50
2019-03-05T01:29:34.636Z,1.60
2019-03-05T01:32:12.226Z,1.40
2019-03-05T01:34:48.227Z,1.40
2019-03-05T01:37:27.229Z,1.40
2019-03-05T01:40:07.163Z,1.40
2019-03-05T01:42:46.236Z,1.50
2019-03-05T01:45:24.236Z,1.50
2019-03-05T01:48:06.240Z,1.50
2019-03-05T01:50:45.236Z,1.60
2019-03-05T01:53:26.235Z,1.30
2019-03-05T01:56:04.712Z,1.23
2019-03-05T01:58:44.235Z,1.40
2019-03-05T02:01:24.234Z,1.20
2019-03-05T02:04:04.241Z,1.47
2019-03-05T02:06:41.129Z,1.30
2019-03-05T02:09:17.236Z,1.10
2019-03-05T02:11:54.681Z,1.07
2019-03-05T02:14:33.707Z,1.00
2019-03-05T02:17:13.234Z,0.97
2019-03-05T02:19:53.245Z,1.10
2019-03-05T02:22:28.131Z,0.90
2019-03-05T02:28:39.945Z,1.00
2019-03-05T02:31:32.592Z,1.10
2019-03-05T02:34:18.245Z,1.00
2019-03-05T02:37:14.245Z,0.87
2019-03-05T02:40:09.250Z,0.90
2019-03-05T02:42:47.721Z,0.90
2019-03-05T02:45:31.593Z,0.93
2019-03-05T02:48:20.257Z,0.97
2019-03-05T02:51:06.252Z,1.07
2019-03-05T02:53:40.524Z,1.33
2019-03-05T02:56:43.275Z,0.90
2019-03-05T02:59:18.753Z,0.80
2019-03-05T03:02:01.296Z,1.10
2019-03-05T03:04:51.761Z,1.10
2019-03-05T03:07:32.312Z,1.00
2019-03-05T03:10:17.331Z,1.10
2019-03-05T03:12:59.346Z,1.00
2019-03-05T03:15:37.805Z,1.00
2019-03-05T03:18:19.332Z,1.10
2019-03-05T03:20:57.807Z,0.80
2019-03-05T03:23:32.841Z,0.90
2019-03-05T03:26:11.332Z,1.00
2019-03-05T03:28:49.055Z,0.73
2019-03-05T03:31:27.777Z,1.00
2019-03-05T03:34:06.805Z,0.93
2019-03-05T03:36:47.340Z,0.80
2019-03-05T03:39:30.341Z,0.80
2019-03-05T03:42:09.342Z,0.70
2019-03-05T03:44:49.354Z,0.90
2019-03-05T03:47:33.823Z,1.07
2019-03-05T03:50:15.351Z,0.90
2019-03-05T03:52:53.355Z,0.90
2019-03-05T03:55:31.360Z,1.10
2019-03-05T03:58:08.810Z,0.70
2019-03-05T04:00:54.359Z,0.73
2019-03-05T04:03:32.368Z,1.00
2019-03-05T04:06:10.807Z,0.87
2019-03-05T04:08:50.389Z,1.00
2019-03-05T04:11:28.393Z,1.00
2019-03-05T04:14:07.388Z,0.90
2019-03-05T04:16:48.388Z,1.00
2019-03-05T04:19:27.398Z,0.90
2019-03-05T04:22:04.883Z,1.10
2019-03-05T04:24:45.408Z,1.00
2019-03-05T04:27:20.879Z,0.93
2019-03-05T04:30:01.476Z,0.90
2019-03-05T04:32:43.418Z,1.10
2019-03-05T04:35:21.864Z,1.07
2019-03-05T04:38:00.416Z,1.00
2019-03-05T04:40:35.915Z,0.73
2019-03-05T04:43:12.416Z,0.83
2019-03-05T04:46:05.421Z,1.00
2019-03-05T04:48:45.426Z,0.80
2019-03-05T04:51:25.426Z,0.97
2019-03-05T04:54:01.397Z,1.03
2019-03-05T04:56:38.426Z,0.90
2019-03-05T04:59:16.455Z,1.10
2019-03-05T05:01:58.424Z,0.90
2019-03-05T05:04:36.427Z,0.90
2019-03-05T05:07:14.434Z,1.17
2019-03-05T05:09:53.433Z,1.30
2019-03-05T05:12:34.434Z,1.00
2019-03-05T05:15:26.434Z,1.20
2019-03-05T05:18:05.433Z,1.50
2019-03-05T05:20:43.435Z,1.27
2019-03-05T05:23:16.431Z,1.30
2019-03-05T05:25:54.431Z,1.47
2019-03-05T05:28:35.432Z,1.23
2019-03-05T05:31:15.881Z,1.10
2019-03-05T05:33:57.441Z,1.50
2019-03-05T05:36:35.881Z,1.40
2019-03-05T05:39:31.308Z,1.10
2019-03-05T05:42:09.448Z,1.33
2019-03-05T05:44:46.950Z,1.20
2019-03-05T05:47:26.446Z,1.30
2019-03-05T05:50:05.471Z,1.40
2019-03-05T05:52:44.440Z,1.60
2019-03-05T05:55:22.442Z,1.60
2019-03-05T05:58:00.913Z,1.50
2019-03-05T06:00:41.451Z,1.27
2019-03-05T06:03:17.427Z,1.47
2019-03-05T06:05:55.461Z,1.33
2019-03-05T06:08:33.949Z,1.40
2019-03-05T06:11:10.460Z,1.47
2019-03-05T06:13:51.898Z,1.47
2019-03-05T06:16:30.929Z,1.50
2019-03-05T06:19:12.930Z,1.30
2019-03-05T06:21:54.458Z,1.60
2019-03-05T06:24:31.901Z,1.30
2019-03-05T06:27:10.457Z,1.30
2019-03-05T06:29:45.249Z,1.37
2019-03-05T06:32:22.330Z,1.43
2019-03-05T06:35:00.467Z,1.60
2019-03-05T06:37:40.468Z,1.53
2019-03-05T06:43:24.466Z,1.30
2019-03-05T06:45:57.953Z,1.30
2019-03-05T06:48:34.467Z,1.30
2019-03-05T06:51:12.470Z,1.40
2019-03-05T06:53:50.465Z,1.30
2019-03-05T06:56:30.465Z,1.50
2019-03-05T06:59:10.940Z,1.70
2019-03-05T07:01:51.474Z,1.60
2019-03-05T07:04:27.875Z,1.50
2019-03-05T07:07:04.962Z,1.20
2019-03-05T07:09:58.504Z,1.50
2019-03-05T07:12:50.451Z,1.50
2019-03-05T07:15:46.496Z,1.30
2019-03-05T07:18:31.957Z,1.27
2019-03-05T07:21:26.345Z,1.50
2019-03-05T07:24:13.667Z,1.50
2019-03-05T07:26:50.239Z,1.20
2019-03-05T07:29:28.962Z,1.23
2019-03-05T07:32:09.503Z,1.20
2019-03-05T07:34:48.965Z,1.37
2019-03-05T07:37:26.524Z,1.50
2019-03-05T07:40:05.995Z,1.43
2019-03-05T07:42:46.965Z,1.30
2019-03-05T07:45:31.536Z,1.37
2019-03-05T07:48:05.226Z,1.73
2019-03-05T07:50:41.541Z,1.50
2019-03-05T07:53:19.544Z,1.70
2019-03-05T07:56:00.552Z,1.83
2019-03-05T07:58:38.553Z,1.60
2019-03-05T08:01:22.340Z,1.70
2019-03-05T08:03:53.254Z,1.90
2019-03-05T08:06:33.552Z,1.77
2019-03-05T08:09:37.563Z,1.70
2019-03-05T08:12:23.000Z,1.67
2019-03-05T08:15:04.564Z,1.30
2019-03-05T08:17:46.818Z,1.50
2019-03-05T08:20:27.578Z,1.50
2019-03-05T08:23:02.146Z,1.20
2019-03-05T08:25:42.032Z,1.50
2019-03-05T08:28:22.585Z,1.37
2019-03-05T08:30:59.064Z,1.17
2019-03-05T08:33:37.591Z,1.40
2019-03-05T08:36:12.607Z,1.40
2019-03-05T08:38:57.070Z,1.20
2019-03-05T08:41:35.075Z,1.50
2019-03-05T08:44:13.795Z,1.10
2019-03-05T08:46:53.625Z,1.07
2019-03-05T08:49:33.285Z,1.00
2019-03-05T08:52:06.270Z,1.00
2019-03-05T08:54:45.646Z,1.30
2019-03-05T08:57:24.648Z,1.03
2019-03-05T09:00:04.653Z,1.00
2019-03-05T09:02:48.512Z,0.80
2019-03-05T09:05:25.654Z,1.10
2019-03-05T09:08:03.655Z,1.00
2019-03-05T09:10:45.656Z,1.13
2019-03-05T09:13:32.718Z,1.00
2019-03-05T09:16:05.101Z,0.93
2019-03-05T09:18:48.665Z,0.88
2019-03-05T09:21:31.667Z,1.00
2019-03-05T09:24:13.149Z,1.12
2019-03-05T09:26:51.413Z,1.00
2019-03-05T09:29:26.667Z,0.78
2019-03-05T09:32:03.569Z,0.90
2019-03-05T09:34:40.141Z,0.70
2019-03-05T09:37:21.668Z,0.98
2019-03-05T09:39:59.666Z,1.00
2019-03-05T09:42:40.116Z,1.02
2019-03-05T09:45:19.527Z,1.00
2019-03-05T09:47:53.850Z,0.82
2019-03-05T09:50:32.149Z,0.90
2019-03-05T09:53:12.106Z,1.00
2019-03-05T09:55:50.669Z,0.80
2019-03-05T09:58:26.670Z,0.70
2019-03-05T10:01:03.560Z,0.88
2019-03-05T10:03:40.332Z,0.80
2019-03-05T10:06:17.670Z,0.60
2019-03-05T10:08:51.028Z,0.70
2019-03-05T10:11:27.702Z,0.70
2019-03-05T10:14:15.729Z,0.93
2019-03-05T10:16:51.485Z,0.85
2019-03-05T10:19:28.704Z,0.60
2019-03-05T10:22:02.980Z,0.70
2019-03-05T10:24:38.424Z,0.70
2019-03-05T10:27:11.207Z,0.80
2019-03-05T10:29:49.213Z,0.70
2019-03-05T10:32:27.714Z,0.80
2019-03-05T10:35:03.750Z,0.78
2019-03-05T10:37:41.733Z,0.82
2019-03-05T10:40:23.732Z,0.62
2019-03-05T10:43:08.369Z,0.80
2019-03-05T10:45:44.198Z,0.60
2019-03-05T10:48:25.736Z,0.98
2019-03-05T10:51:03.175Z,1.20
2019-03-05T10:53:41.744Z,0.80
2019-03-05T10:56:17.240Z,0.60
2019-03-05T10:58:55.247Z,0.67
2019-03-05T11:01:35.775Z,0.73
2019-03-05T11:04:11.776Z,0.70
2019-03-05T11:06:50.696Z,0.70
2019-03-05T11:09:31.776Z,0.90
2019-03-05T11:12:12.779Z,0.80
2019-03-05T11:14:52.774Z,0.73
2019-03-05T11:17:27.519Z,0.63
2019-03-05T11:20:06.237Z,0.77
2019-03-05T11:22:48.786Z,0.70
2019-03-05T11:25:25.541Z,0.80
2019-03-05T11:28:03.813Z,0.80
2019-03-05T11:30:43.805Z,1.90
2019-03-05T11:33:24.247Z,1.73
2019-03-05T11:36:02.353Z,2.37
2019-03-05T11:38:34.936Z,2.67
2019-03-05T11:41:08.427Z,2.10
2019-03-05T11:43:48.078Z,2.00
2019-03-05T11:46:24.827Z,1.60
2019-03-05T11:49:08.380Z,1.50
2019-03-05T11:51:46.838Z,1.70
2019-03-05T11:54:19.268Z,1.53
2019-03-05T11:56:52.355Z,1.60
2019-03-05T11:59:27.698Z,1.30
2019-03-05T12:02:04.835Z,1.33
2019-03-05T12:04:38.280Z,1.50
2019-03-05T12:07:19.261Z,1.33
2019-03-05T12:09:56.859Z,1.23
2019-03-05T12:12:35.858Z,1.50
2019-03-05T12:15:20.329Z,1.30
2019-03-05T12:17:59.881Z,1.07
2019-03-05T12:20:41.355Z,1.13
2019-03-05T12:23:25.883Z,1.20
2019-03-05T12:26:05.554Z,1.33
2019-03-05T12:28:42.243Z,1.20
2019-03-05T12:31:21.914Z,1.10
2019-03-05T12:34:00.912Z,0.90
2019-03-05T12:36:42.711Z,1.20
2019-03-05T12:39:23.910Z,1.00
2019-03-05T12:42:03.663Z,0.90
2019-03-05T12:44:40.911Z,1.10
2019-03-05T12:47:20.553Z,1.00
2019-03-05T12:49:56.808Z,0.90
2019-03-05T12:52:28.270Z,1.00
2019-03-05T12:55:02.924Z,1.10
2019-03-05T12:57:39.768Z,0.90
2019-03-05T13:00:17.261Z,1.10
2019-03-05T13:02:57.934Z,1.00
2019-03-05T13:05:37.941Z,1.13
2019-03-05T13:08:15.941Z,1.07
2019-03-05T13:10:54.942Z,1.00
2019-03-05T13:16:49.952Z,1.00
2019-03-05T13:19:31.409Z,0.80
2019-03-05T13:22:09.965Z,0.90
2019-03-05T13:24:51.289Z,0.90
2019-03-05T13:27:29.973Z,0.70
2019-03-05T13:30:10.470Z,0.90
2019-03-05T13:32:54.097Z,1.23
2019-03-05T13:35:32.086Z,1.17
2019-03-05T13:38:14.739Z,1.20
2019-03-05T13:40:53.986Z,1.47
2019-03-05T13:43:30.992Z,1.30
2019-03-05T13:46:12.012Z,1.30
2019-03-05T13:49:00.480Z,1.60
2019-03-05T13:52:16.014Z,1.40
2019-03-05T13:55:07.017Z,1.20
2019-03-05T13:57:57.876Z,1.07
2019-03-05T14:00:36.017Z,1.20
2019-03-05T14:03:20.013Z,1.40
2019-03-05T14:06:24.198Z,1.53
2019-03-05T14:09:17.020Z,1.50
2019-03-05T14:11:51.724Z,1.30
2019-03-05T14:14:32.610Z,1.20
2019-03-05T14:17:10.504Z,1.50
2019-03-05T14:19:49.526Z,1.30
2019-03-05T14:22:30.065Z,1.67
2019-03-05T14:25:08.519Z,1.40
2019-03-05T14:27:48.109Z,1.50
2019-03-05T14:30:33.084Z,1.30
2019-03-05T14:33:08.556Z,1.13
2019-03-05T14:35:49.541Z,1.53
2019-03-05T14:38:28.086Z,1.80
2019-03-05T14:41:12.401Z,2.10
2019-03-05T14:43:48.098Z,2.03
2019-03-05T14:46:29.566Z,2.50
2019-03-05T14:49:08.093Z,2.70
2019-03-05T14:51:49.113Z,2.90
2019-03-05T14:54:29.128Z,2.93
2019-03-05T14:57:06.998Z,3.17
2019-03-05T14:59:47.559Z,3.30
2019-03-05T15:02:27.156Z,3.73
2019-03-05T15:05:08.132Z,3.60
2019-03-05T15:07:46.568Z,3.60
2019-03-05T15:10:25.139Z,4.40
2019-03-05T15:13:14.747Z,5.70
2019-03-05T15:15:40.814Z,5.00
2019-03-05T15:18:19.175Z,4.97
2019-03-05T15:20:56.590Z,5.03
2019-03-05T15:23:35.625Z,5.13
2019-03-05T15:26:17.192Z,5.13
2019-03-05T15:28:56.323Z,4.37
2019-03-05T15:31:29.664Z,5.10
2019-03-05T15:34:04.061Z,4.80
2019-03-05T15:36:40.166Z,4.80
2019-03-05T15:39:20.185Z,5.03
2019-03-05T15:41:59.190Z,5.00
2019-03-05T15:44:46.188Z,6.07
2019-03-05T15:47:25.170Z,6.77
2019-03-05T15:50:05.205Z,6.73
2019-03-05T15:52:45.199Z,6.60
2019-03-05T15:55:24.471Z,7.63
2019-03-05T15:58:03.169Z,6.63
2019-03-05T16:00:39.345Z,6.80
2019-03-05T16:03:12.639Z,7.43
2019-03-05T16:05:53.889Z,6.90
2019-03-05T16:08:32.775Z,6.77
2019-03-05T16:11:14.168Z,7.00
2019-03-05T16:13:56.493Z,6.27
2019-03-05T16:16:33.002Z,5.77
2019-03-05T16:19:16.460Z,6.10
2019-03-05T16:21:53.619Z,6.10
2019-03-05T16:24:33.826Z,5.90
2019-03-05T16:27:13.181Z,5.80
2019-03-05T16:29:55.683Z,5.53
2019-03-05T16:32:37.187Z,5.80
2019-03-05T16:35:13.803Z,5.53
2019-03-05T16:37:57.804Z,5.10
2019-03-05T16:40:47.217Z,5.27
2019-03-05T16:43:25.093Z,4.50
2019-03-05T16:46:01.973Z,4.67
2019-03-05T16:48:53.226Z,4.43
2019-03-05T16:51:35.227Z,5.00
2019-03-05T16:54:17.238Z,4.73
2019-03-05T16:56:55.236Z,4.60
2019-03-05T16:59:45.682Z,4.63
2019-03-05T17:02:32.236Z,4.43
2019-03-05T17:05:27.256Z,4.10
2019-03-05T17:08:10.257Z,4.70
2019-03-05T17:11:02.277Z,4.20
2019-03-05T17:13:42.274Z,4.40
2019-03-05T17:25:05.726Z,3.83
2019-03-05T17:27:48.746Z,4.00
2019-03-05T17:30:29.282Z,5.13
2019-03-05T17:33:11.283Z,5.03
2019-03-05T17:35:52.287Z,6.23
2019-03-05T17:38:33.766Z,7.47
2019-03-05T17:41:11.303Z,9.33
2019-03-05T17:43:52.738Z,10.87
2019-03-05T17:46:34.307Z,10.73
2019-03-05T17:49:11.612Z,12.30
2019-03-05T17:51:50.795Z,13.87
2019-03-05T17:54:28.232Z,14.43
2019-03-05T18:00:44.322Z,14.37
2019-03-05T18:03:23.320Z,13.20
2019-03-05T18:06:04.323Z,13.70
2019-03-05T18:08:39.182Z,12.57
2019-03-05T18:11:17.335Z,12.40
2019-03-05T18:13:58.331Z,10.87
2019-03-05T18:16:37.331Z,11.23
2019-03-05T18:19:16.335Z,11.07
2019-03-05T18:21:55.330Z,10.80
2019-03-05T18:24:36.333Z,10.63
2019-03-05T18:27:16.778Z,9.53
2019-03-05T18:30:02.336Z,10.33
2019-03-05T18:32:38.218Z,9.90
2019-03-05T18:35:15.345Z,8.47
2019-03-05T18:37:56.402Z,9.03
2019-03-05T18:40:35.352Z,8.50
2019-03-05T18:43:18.358Z,8.03
2019-03-05T18:45:57.361Z,7.80
2019-03-05T18:48:38.359Z,7.43
2019-03-05T18:51:13.049Z,8.00
2019-03-05T18:53:55.371Z,7.43
2019-03-05T18:56:33.767Z,7.27
2019-03-05T18:59:09.314Z,6.90
2019-03-05T19:01:46.380Z,7.10
2019-03-05T19:04:24.391Z,7.03
2019-03-05T19:07:03.402Z,6.13
2019-03-05T19:09:43.409Z,6.47
2019-03-05T19:12:22.099Z,5.90
2019-03-05T19:14:59.695Z,5.97
2019-03-05T19:17:38.409Z,5.77
2019-03-05T19:20:23.421Z,5.70
2019-03-05T19:23:03.416Z,5.73
2019-03-05T19:25:40.310Z,5.40
2019-03-05T19:28:18.431Z,5.53
2019-03-05T19:30:59.427Z,5.40
2019-03-05T19:33:32.786Z,4.93
2019-03-05T19:36:10.893Z,4.97
2019-03-05T19:38:50.344Z,4.83
2019-03-05T19:41:29.440Z,4.40
2019-03-05T19:44:02.346Z,4.87
2019-03-05T19:46:35.536Z,4.13
2019-03-05T19:49:11.436Z,4.40
2019-03-05T19:51:50.452Z,3.97
2019-03-05T19:54:28.119Z,3.93
2019-03-05T19:57:05.447Z,3.97
2019-03-05T19:59:47.918Z,3.77
2019-03-05T20:02:32.445Z,3.67
2019-03-05T20:05:09.858Z,3.93
2019-03-05T20:07:44.189Z,3.90
2019-03-05T20:10:20.953Z,3.70
2019-03-05T20:12:55.374Z,3.63
2019-03-05T20:15:32.467Z,3.23
2019-03-05T20:18:13.464Z,3.47
2019-03-05T20:20:52.468Z,3.20
2019-03-05T20:23:35.496Z,3.27
2019-03-05T20:26:13.792Z,3.67
2019-03-05T20:28:53.494Z,3.00
2019-03-05T20:31:39.500Z,2.80
2019-03-05T20:34:16.301Z,2.97
2019-03-05T20:36:56.498Z,2.97
2019-03-05T20:39:36.495Z,3.00
2019-03-05T20:42:16.496Z,3.40
2019-03-05T20:44:54.505Z,3.23
2019-03-05T20:47:32.975Z,2.97
2019-03-05T20:50:14.505Z,3.13
2019-03-05T20:52:49.528Z,3.10
2019-03-05T20:55:26.168Z,3.03
2019-03-05T20:58:00.179Z,2.70
2019-03-05T21:00:36.851Z,3.10
2019-03-05T21:03:14.526Z,3.10
2019-03-05T21:05:48.972Z,3.03
2019-03-05T21:08:27.535Z,2.77
2019-03-05T21:11:08.972Z,3.03
2019-03-05T21:13:47.537Z,2.47
2019-03-05T21:16:26.544Z,2.97
2019-03-05T21:19:05.029Z,2.37
2019-03-05T21:21:43.561Z,2.57
2019-03-05T21:24:23.567Z,2.43
2019-03-05T21:27:02.011Z,2.80
2019-03-05T21:29:47.567Z,2.53
2019-03-05T21:32:23.565Z,2.80
2019-03-05T21:35:04.568Z,2.80
2019-03-05T21:37:43.566Z,2.70
2019-03-05T21:40:33.576Z,2.70
2019-03-05T21:43:13.576Z,2.93
2019-03-05T21:45:58.043Z,2.63
2019-03-05T21:48:39.018Z,2.67
2019-03-05T21:51:21.016Z,3.00
2019-03-05T21:54:02.579Z,2.63
2019-03-05T21:56:38.047Z,2.77
2019-03-05T21:59:18.579Z,2.70
2019-03-05T22:01:57.577Z,2.93
2019-03-05T22:04:34.312Z,3.40
2019-03-05T22:07:11.703Z,3.00
2019-03-05T22:09:48.477Z,3.30
2019-03-05T22:15:38.599Z,3.10
2019-03-05T22:18:19.609Z,3.83
2019-03-05T22:20:59.624Z,3.53
2019-03-05T22:23:38.620Z,3.83
2019-03-05T22:26:16.620Z,3.83
2019-03-05T22:29:02.621Z,4.00
2019-03-05T22:31:43.622Z,4.00
2019-03-05T22:34:29.093Z,4.80
2019-03-05T22:37:11.085Z,3.73
2019-03-05T22:39:52.622Z,4.17
2019-03-05T22:42:34.057Z,4.40
2019-03-05T22:45:14.631Z,4.63
2019-03-05T22:47:55.633Z,5.00
2019-03-05T22:50:38.103Z,4.97
2019-03-05T22:53:20.646Z,5.20
2019-03-05T22:55:56.569Z,5.20
2019-03-05T22:58:34.641Z,5.53
2019-03-05T23:01:13.086Z,5.60
2019-03-05T23:03:52.014Z,5.93
2019-03-05T23:06:30.122Z,5.93
2019-03-05T23:09:10.651Z,6.17
2019-03-05T23:11:49.096Z,6.50
2019-03-05T23:14:28.366Z,6.17
2019-03-05T23:17:09.666Z,5.83
2019-03-05T23:19:47.663Z,5.97
2019-03-05T23:22:25.665Z,5.90
2019-03-05T23:25:03.663Z,6.17
2019-03-05T23:27:42.668Z,5.97
2019-03-05T23:30:31.611Z,5.93
2019-03-05T23:33:09.663Z,5.97
2019-03-05T23:35:47.663Z,6.10
2019-03-05T23:38:25.670Z,5.70
2019-03-05T23:41:03.673Z,5.80
2019-03-05T23:43:41.123Z,5.53
2019-03-05T23:46:20.674Z,5.77
2019-03-05T23:48:54.773Z,5.77
2019-03-05T23:51:34.120Z,5.73
2019-03-05T23:54:13.146Z,5.93
2019-03-05T23:56:50.676Z,5.43
2019-03-05T23:59:27.677Z,5.40
